createdAt,value
2018-12-15T00:01:54.719Z,99883.27
2018-12-15T00:04:23.486Z,99891.83
2018-12-15T00:06:51.952Z,99886.63
2018-12-15T00:09:20.520Z,99882.39
2018-12-15T00:11:50.234Z,99890.67
2018-12-15T00:14:19.567Z,99889.70
2018-12-15T00:16:48.377Z,99889.34
2018-12-15T00:19:18.869Z,99896.86
2018-12-15T00:21:47.304Z,99900.16
2018-12-15T00:24:16.566Z,99888.44
2018-12-15T00:26:45.267Z,99896.77
2018-12-15T00:29:15.120Z,99898.59
2018-12-15T00:31:45.333Z,99900.33
2018-12-15T00:34:14.415Z,99902.49
2018-12-15T00:36:43.594Z,99908.23
2018-12-15T00:39:13.122Z,99911.39
2018-12-15T00:41:44.167Z,99910.02
2018-12-15T00:44:14.521Z,99907.84
2018-12-15T00:46:43.360Z,99911.83
2018-12-15T00:49:11.810Z,99915.70
2018-12-15T00:51:42.371Z,99919.98
2018-12-15T00:54:13.475Z,99916.53
2018-12-15T00:56:42.633Z,99916.05
2018-12-15T00:59:11.718Z,99923.91
2018-12-15T01:01:41.812Z,99925.15
2018-12-15T01:04:10.716Z,99923.81
2018-12-15T01:06:40.704Z,99928.94
2018-12-15T01:09:09.952Z,99934.20
2018-12-15T01:11:38.690Z,99933.80
2018-12-15T01:14:07.390Z,99934.77
2018-12-15T01:16:36.257Z,99939.92
2018-12-15T01:19:05.534Z,99942.05
2018-12-15T01:21:34.280Z,99946.47
2018-12-15T01:24:02.733Z,99949.52
2018-12-15T01:26:34.980Z,99951.60
2018-12-15T01:29:04.068Z,99957.67
2018-12-15T01:31:32.551Z,99950.84
2018-12-15T01:34:02.756Z,99959.89
2018-12-15T01:36:32.417Z,99967.27
2018-12-15T01:39:00.875Z,99969.49
2018-12-15T01:41:30.869Z,99969.52
2018-12-15T01:44:00.393Z,99971.26
2018-12-15T01:46:28.887Z,99973.39
2018-12-15T01:48:58.750Z,99970.36
2018-12-15T01:51:27.213Z,99972.13
2018-12-15T01:53:55.635Z,99968.55
2018-12-15T01:56:25.326Z,99962.09
2018-12-15T01:58:53.785Z,99972.96
2018-12-15T02:01:22.392Z,99975.56
2018-12-15T02:03:51.490Z,99970.02
2018-12-15T02:06:21.448Z,99976.06
2018-12-15T02:08:50.175Z,99976.01
2018-12-15T02:11:19.630Z,99971.68
2018-12-15T02:13:48.123Z,99974.60
2018-12-15T02:16:16.558Z,99980.35
2018-12-15T02:18:46.884Z,99964.69
2018-12-15T02:21:16.149Z,99967.73
2018-12-15T02:23:44.868Z,99966.95
2018-12-15T02:26:15.479Z,99967.33
2018-12-15T02:28:43.920Z,99964.78
2018-12-15T02:31:12.362Z,99965.52
2018-12-15T02:33:41.417Z,99962.48
2018-12-15T02:36:10.197Z,99967.73
2018-12-15T02:38:39.574Z,99968.63
2018-12-15T02:41:08.411Z,99963.77
2018-12-15T02:43:37.350Z,99969.20
2018-12-15T02:46:06.496Z,99967.33
2018-12-15T02:48:35.189Z,99965.20
2018-12-15T02:51:04.270Z,99963.48
2018-12-15T02:53:33.674Z,99974.75
2018-12-15T02:56:03.699Z,99978.15
2018-12-15T02:58:34.219Z,99984.16
2018-12-15T03:01:03.679Z,99975.91
2018-12-15T03:03:32.587Z,99976.74
2018-12-15T03:06:01.243Z,99976.66
2018-12-15T03:08:30.129Z,99983.70
2018-12-15T03:10:58.562Z,99979.03
2018-12-15T03:13:27.030Z,99985.02
2018-12-15T03:15:57.355Z,99978.05
2018-12-15T03:18:27.357Z,99984.13
2018-12-15T03:21:01.784Z,99989.79
2018-12-15T03:23:31.928Z,99984.05
2018-12-15T03:26:01.092Z,99981.87
2018-12-15T03:28:30.952Z,99987.97
2018-12-15T03:30:59.446Z,99994.05
2018-12-15T03:33:28.621Z,99986.66
2018-12-15T03:35:57.496Z,99990.51
2018-12-15T03:38:26.932Z,99985.30
2018-12-15T03:40:56.421Z,99988.80
2018-12-15T03:46:11.198Z,99990.97
2018-12-15T03:48:40.455Z,99988.83
2018-12-15T03:51:09.578Z,99990.09
2018-12-15T03:53:38.640Z,99995.78
2018-12-15T03:56:07.306Z,99994.22
2018-12-15T03:58:37.251Z,99994.94
2018-12-15T04:01:06.256Z,99989.27
2018-12-15T04:03:34.742Z,99991.45
2018-12-15T04:06:04.645Z,99988.91
2018-12-15T04:08:34.310Z,99989.72
2018-12-15T04:11:02.769Z,99988.80
2018-12-15T04:13:31.541Z,99984.05
2018-12-15T04:16:00.700Z,99981.83
2018-12-15T04:18:30.008Z,99981.82
2018-12-15T04:20:59.464Z,99979.72
2018-12-15T04:23:28.481Z,99983.55
2018-12-15T04:25:57.712Z,99985.86
2018-12-15T04:28:26.750Z,99976.22
2018-12-15T04:30:57.567Z,99977.12
2018-12-15T04:33:25.997Z,99977.96
2018-12-15T04:35:54.432Z,99980.61
2018-12-15T04:38:24.710Z,99977.23
2018-12-15T04:40:53.181Z,99987.56
2018-12-15T04:43:23.394Z,99975.73
2018-12-15T04:45:54.202Z,99974.91
2018-12-15T04:48:23.063Z,99972.36
2018-12-15T04:50:53.803Z,99970.08
2018-12-15T04:53:23.154Z,99971.84
2018-12-15T04:55:52.483Z,99968.78
2018-12-15T04:58:20.907Z,99970.55
2018-12-15T05:00:50.664Z,99978.36
2018-12-15T05:03:22.888Z,99977.92
2018-12-15T05:05:53.405Z,99971.92
2018-12-15T05:08:21.871Z,99972.78
2018-12-15T05:10:51.150Z,99968.06
2018-12-15T05:13:20.268Z,99972.84
2018-12-15T05:15:49.272Z,99965.83
2018-12-15T05:18:19.144Z,99964.47
2018-12-15T05:20:48.483Z,99966.22
2018-12-15T05:23:17.354Z,99968.47
2018-12-15T05:25:47.417Z,99969.30
2018-12-15T05:28:15.828Z,99976.64
2018-12-15T05:30:44.274Z,99973.23
2018-12-15T05:33:12.691Z,99970.61
2018-12-15T05:35:41.135Z,99971.05
2018-12-15T05:38:11.149Z,99969.70
2018-12-15T05:40:40.718Z,99972.81
2018-12-15T05:43:10.175Z,99965.88
2018-12-15T05:45:40.142Z,99969.33
2018-12-15T05:48:10.106Z,99965.44
2018-12-15T05:50:38.538Z,99962.02
2018-12-15T05:53:07.003Z,99967.64
2018-12-15T05:55:35.475Z,99968.06
2018-12-15T05:58:04.909Z,99970.25
2018-12-15T06:00:33.564Z,99969.72
2018-12-15T06:03:03.015Z,99970.70
2018-12-15T06:05:33.094Z,99975.02
2018-12-15T06:08:01.538Z,99975.00
2018-12-15T06:10:31.355Z,99974.14
2018-12-15T06:13:01.347Z,99977.98
2018-12-15T06:15:30.895Z,99984.18
2018-12-15T06:18:00.711Z,99981.58
2018-12-15T06:20:29.884Z,99985.84
2018-12-15T06:22:58.362Z,99992.39
2018-12-15T06:25:27.237Z,99991.47
2018-12-15T06:27:56.347Z,99991.09
2018-12-15T06:30:24.805Z,99997.17
2018-12-15T06:32:53.286Z,99991.45
2018-12-15T06:35:22.685Z,99992.39
2018-12-15T06:37:51.881Z,99991.98
2018-12-15T06:40:20.717Z,99988.86
2018-12-15T06:42:49.535Z,99994.06
2018-12-15T06:45:19.381Z,99996.64
2018-12-15T06:47:48.803Z,99992.34
2018-12-15T06:50:17.800Z,99992.36
2018-12-15T06:52:50.346Z,99995.39
2018-12-15T06:55:20.429Z,99992.77
2018-12-15T06:57:52.576Z,100001.52
2018-12-15T07:00:26.938Z,99995.86
2018-12-15T07:03:08.101Z,99991.98
2018-12-15T07:05:45.743Z,99994.52
2018-12-15T07:08:27.814Z,99986.84
2018-12-15T07:11:00.696Z,99994.66
2018-12-15T07:13:30.841Z,99989.81
2018-12-15T07:16:05.886Z,99994.20
2018-12-15T07:18:46.490Z,99995.48
2018-12-15T07:21:15.925Z,99998.06
2018-12-15T07:23:45.538Z,99992.84
2018-12-15T07:26:19.022Z,99987.11
2018-12-15T07:28:57.377Z,99992.86
2018-12-15T07:31:31.702Z,99997.59
2018-12-15T07:34:05.372Z,99994.18
2018-12-15T07:39:16.330Z,99991.54
2018-12-15T07:41:53.565Z,99995.09
2018-12-15T07:44:27.238Z,99995.89
2018-12-15T07:46:57.248Z,99995.88
2018-12-15T07:49:26.762Z,99994.16
2018-12-15T07:51:58.538Z,99993.30
2018-12-15T07:54:31.013Z,99999.30
2018-12-15T07:57:00.469Z,99994.59
2018-12-15T07:59:34.134Z,99998.50
2018-12-15T08:02:12.978Z,99995.80
2018-12-15T08:04:46.850Z,99993.64
2018-12-15T08:07:21.591Z,100005.78
2018-12-15T08:09:59.891Z,100008.01
2018-12-15T08:12:39.917Z,100009.25
2018-12-15T08:15:12.570Z,100004.95
2018-12-15T08:17:41.913Z,100008.41
2018-12-15T08:20:11.288Z,100004.06
2018-12-15T08:22:40.554Z,100011.02
2018-12-15T08:25:10.792Z,100003.19
2018-12-15T08:27:40.869Z,100004.92
2018-12-15T08:30:23.452Z,100010.59
2018-12-15T08:32:52.759Z,100013.58
2018-12-15T08:35:29.696Z,100001.03
2018-12-15T08:38:10.139Z,100004.88
2018-12-15T08:41:02.102Z,100013.18
2018-12-15T08:43:45.414Z,100008.33
2018-12-15T08:46:18.795Z,100010.50
2018-12-15T08:48:56.637Z,100002.67
2018-12-15T08:51:32.628Z,100002.22
2018-12-15T08:54:07.834Z,100008.89
2018-12-15T08:56:39.827Z,100019.16
2018-12-15T08:59:20.303Z,100016.05
2018-12-15T09:01:55.279Z,100019.13
2018-12-15T09:04:29.869Z,100016.11
2018-12-15T09:07:03.754Z,100007.00
2018-12-15T09:09:32.360Z,100010.95
2018-12-15T09:12:00.801Z,100015.70
2018-12-15T09:14:33.254Z,100022.66
2018-12-15T09:17:02.654Z,100015.70
2018-12-15T09:19:31.097Z,100014.36
2018-12-15T09:21:59.914Z,100013.41
2018-12-15T09:24:28.845Z,100013.45
2018-12-15T09:26:58.847Z,100015.23
2018-12-15T09:29:27.704Z,100011.84
2018-12-15T09:31:58.073Z,100012.19
2018-12-15T09:34:29.191Z,100012.17
2018-12-15T09:36:59.396Z,100014.00
2018-12-15T09:39:29.584Z,100018.72
2018-12-15T09:42:00.345Z,100017.86
2018-12-15T09:44:29.918Z,100019.06
2018-12-15T09:47:02.482Z,100019.53
2018-12-15T09:49:37.191Z,100023.84
2018-12-15T09:52:10.205Z,100023.92
2018-12-15T09:54:39.686Z,100021.78
2018-12-15T09:57:10.884Z,100022.28
2018-12-15T09:59:42.431Z,100024.48
2018-12-15T10:02:11.622Z,100022.26
2018-12-15T10:04:40.429Z,100023.50
2018-12-15T10:07:09.165Z,100022.09
2018-12-15T10:09:38.857Z,100016.56
2018-12-15T10:12:09.017Z,100018.29
2018-12-15T10:14:41.839Z,100024.34
2018-12-15T10:17:14.604Z,100023.08
2018-12-15T10:19:43.989Z,100015.99
2018-12-15T10:22:13.186Z,100017.43
2018-12-15T10:24:41.980Z,100014.48
2018-12-15T10:27:10.447Z,100006.98
2018-12-15T10:29:44.281Z,100004.73
2018-12-15T10:32:17.810Z,100002.98
2018-12-15T10:34:46.260Z,100004.73
2018-12-15T10:37:15.973Z,100003.86
2018-12-15T10:39:45.393Z,100004.20
2018-12-15T10:42:24.840Z,99994.66
2018-12-15T10:44:54.315Z,100000.80
2018-12-15T10:47:28.707Z,99990.33
2018-12-15T10:49:58.883Z,99987.23
2018-12-15T10:52:31.203Z,99988.89
2018-12-15T10:54:59.663Z,99977.12
2018-12-15T10:57:28.195Z,99967.72
2018-12-15T10:59:57.568Z,99969.45
2018-12-15T11:02:26.802Z,99965.22
2018-12-15T11:04:55.267Z,99965.23
2018-12-15T11:07:23.721Z,99963.05
2018-12-15T11:09:52.822Z,99961.00
2018-12-15T11:12:21.729Z,99957.39
2018-12-15T11:14:50.896Z,99953.88
2018-12-15T11:17:22.927Z,99957.86
2018-12-15T11:19:51.393Z,99948.36
2018-12-15T11:22:20.090Z,99950.20
2018-12-15T11:24:49.596Z,99947.44
2018-12-15T11:27:18.726Z,99944.44
2018-12-15T11:29:47.180Z,99940.90
2018-12-15T11:32:16.343Z,99937.53
2018-12-15T11:34:45.024Z,99934.84
2018-12-15T11:37:14.328Z,99927.91
2018-12-15T11:39:42.811Z,99936.95
2018-12-15T11:42:11.632Z,99931.67
2018-12-15T11:44:40.129Z,99930.92
2018-12-15T11:47:08.948Z,99923.14
2018-12-15T11:49:43.507Z,99919.61
2018-12-15T11:52:08.165Z,99926.13
2018-12-15T11:54:36.845Z,99920.35
2018-12-15T11:57:05.272Z,99921.30
2018-12-15T11:59:34.062Z,99923.06
2018-12-15T12:02:02.713Z,99921.77
2018-12-15T12:04:31.200Z,99921.30
2018-12-15T12:06:59.674Z,99919.45
2018-12-15T12:09:28.369Z,99912.99
2018-12-15T12:11:57.362Z,99912.64
2018-12-15T12:14:25.824Z,99909.10
2018-12-15T12:16:54.269Z,99900.50
2018-12-15T12:19:23.737Z,99897.44
2018-12-15T12:21:52.884Z,99890.28
2018-12-15T12:24:21.313Z,99887.63
2018-12-15T12:26:49.795Z,99890.50
2018-12-15T12:29:18.809Z,99890.27
2018-12-15T12:31:47.251Z,99892.79
2018-12-15T12:34:16.079Z,99891.80
2018-12-15T12:36:44.958Z,99893.56
2018-12-15T12:39:14.266Z,99897.75
2018-12-15T12:41:42.715Z,99889.09
2018-12-15T12:44:12.078Z,99888.98
2018-12-15T12:46:40.743Z,99879.06
2018-12-15T12:49:09.206Z,99876.96
2018-12-15T12:51:38.704Z,99872.75
2018-12-15T12:54:07.168Z,99869.61
2018-12-15T12:56:35.655Z,99871.82
2018-12-15T12:59:04.528Z,99870.95
2018-12-15T13:01:39.258Z,99874.53
2018-12-15T13:04:07.752Z,99872.83
2018-12-15T13:06:38.647Z,99875.92
2018-12-15T13:09:20.383Z,99864.90
2018-12-15T13:11:52.533Z,99861.55
2018-12-15T13:14:21.064Z,99858.85
2018-12-15T13:16:50.032Z,99859.65
2018-12-15T13:19:18.807Z,99860.05
2018-12-15T13:21:51.515Z,99859.67
2018-12-15T13:24:19.974Z,99859.62
2018-12-15T13:26:50.019Z,99856.59
2018-12-15T13:29:23.312Z,99852.29
2018-12-15T13:31:53.712Z,99858.34
2018-12-15T13:34:25.120Z,99849.27
2018-12-15T13:36:54.635Z,99840.10
2018-12-15T13:39:23.119Z,99839.12
2018-12-15T13:41:51.635Z,99838.19
2018-12-15T13:44:20.499Z,99838.69
2018-12-15T13:46:49.437Z,99844.83
2018-12-15T13:49:18.277Z,99842.61
2018-12-15T13:51:46.761Z,99844.96
2018-12-15T13:54:18.289Z,99840.95
2018-12-15T13:56:47.260Z,99845.73
2018-12-15T13:59:23.975Z,99849.20
2018-12-15T14:01:54.536Z,99844.38
2018-12-15T14:04:26.669Z,99834.91
2018-12-15T14:06:59.353Z,99848.91
2018-12-15T14:09:28.804Z,99843.63
2018-12-15T14:12:00.154Z,99846.28
2018-12-15T14:14:30.592Z,99850.21
2018-12-15T14:17:13.071Z,99845.07
2018-12-15T14:19:49.508Z,99847.26
2018-12-15T14:22:18.598Z,99846.52
2018-12-15T14:24:48.521Z,99848.16
2018-12-15T14:27:19.741Z,99848.70
2018-12-15T14:29:50.367Z,99845.72
2018-12-15T14:32:20.266Z,99839.23
2018-12-15T14:34:54.610Z,99836.97
2018-12-15T14:37:23.950Z,99837.86
2018-12-15T14:39:59.429Z,99838.66
2018-12-15T14:43:00.443Z,99824.81
2018-12-15T14:45:31.797Z,99833.05
2018-12-15T14:48:08.859Z,99823.55
2018-12-15T14:50:37.954Z,99818.31
2018-12-15T14:53:08.812Z,99820.95
2018-12-15T14:55:38.746Z,99808.78
2018-12-15T14:58:09.871Z,99812.23
2018-12-15T15:00:38.541Z,99810.89
2018-12-15T15:03:08.170Z,99804.88
2018-12-15T15:05:37.533Z,99802.67
2018-12-15T15:08:08.626Z,99808.75
2018-12-15T15:10:37.805Z,99806.56
2018-12-15T15:13:06.411Z,99806.47
2018-12-15T15:15:35.532Z,99803.91
2018-12-15T15:18:17.922Z,99794.34
2018-12-15T15:20:48.587Z,99797.03
2018-12-15T15:23:19.057Z,99787.53
2018-12-15T15:25:48.089Z,99783.18
2018-12-15T15:28:17.255Z,99789.32
2018-12-15T15:30:46.072Z,99794.56
2018-12-15T15:33:14.514Z,99787.15
2018-12-15T15:35:42.970Z,99793.70
2018-12-15T15:38:11.447Z,99792.47
2018-12-15T15:40:39.924Z,99786.38
2018-12-15T15:43:09.742Z,99775.88
2018-12-15T15:45:42.132Z,99770.69
2018-12-15T15:48:13.448Z,99772.52
2018-12-15T15:50:46.819Z,99764.71
2018-12-15T15:53:24.967Z,99761.31
2018-12-15T15:55:57.870Z,99754.73
2018-12-15T15:58:32.254Z,99759.04
2018-12-15T16:01:03.775Z,99747.18
2018-12-15T16:03:36.029Z,99749.39
2018-12-15T16:06:07.355Z,99745.48
2018-12-15T16:08:37.963Z,99741.17
2018-12-15T16:11:09.523Z,99734.11
2018-12-15T16:13:40.698Z,99734.27
2018-12-15T16:16:42.156Z,99730.27
2018-12-15T16:19:13.396Z,99730.74
2018-12-15T16:21:50.482Z,99725.13
2018-12-15T16:24:21.347Z,99726.20
2018-12-15T16:26:57.227Z,99719.37
2018-12-15T16:29:29.455Z,99722.39
2018-12-15T16:32:00.417Z,99715.41
2018-12-15T16:34:32.013Z,99717.62
2018-12-15T16:37:03.134Z,99715.89
2018-12-15T16:39:33.665Z,99718.09
2018-12-15T16:42:05.736Z,99714.19
2018-12-15T16:44:37.735Z,99717.26
2018-12-15T16:47:06.305Z,99718.52
2018-12-15T16:49:35.010Z,99715.09
2018-12-15T16:52:03.544Z,99708.25
2018-12-15T16:54:31.990Z,99707.42
2018-12-15T16:57:00.869Z,99704.33
2018-12-15T16:59:29.407Z,99706.91
2018-12-15T17:01:59.103Z,99701.35
2018-12-15T17:04:27.561Z,99708.70
2018-12-15T17:06:56.004Z,99714.32
2018-12-15T17:09:24.470Z,99708.28
2018-12-15T17:11:53.925Z,99708.25
2018-12-15T17:14:22.563Z,99700.08
2018-12-15T17:16:51.471Z,99700.91
2018-12-15T17:19:20.396Z,99697.91
2018-12-15T17:21:49.687Z,99691.80
2018-12-15T17:24:18.220Z,99686.20
2018-12-15T17:26:46.892Z,99680.92
2018-12-15T17:29:16.579Z,99666.66
2018-12-15T17:31:45.574Z,99661.47
2018-12-15T17:34:14.196Z,99655.51
2018-12-15T17:36:43.056Z,99660.78
2018-12-15T17:39:11.788Z,99660.89
2018-12-15T17:41:40.222Z,99664.62
2018-12-15T17:44:10.861Z,99667.66
2018-12-15T17:46:45.541Z,99663.73
2018-12-15T17:49:19.468Z,99660.02
2018-12-15T17:51:53.769Z,99668.69
2018-12-15T17:54:25.018Z,99673.41
2018-12-15T17:56:58.192Z,99662.12
2018-12-15T17:59:27.988Z,99651.73
2018-12-15T18:01:58.066Z,99654.72
2018-12-15T18:04:26.756Z,99654.72
2018-12-15T18:07:01.548Z,99657.72
2018-12-15T18:09:30.617Z,99648.25
2018-12-15T18:12:02.045Z,99640.89
2018-12-15T18:14:31.186Z,99635.75
2018-12-15T18:17:00.727Z,99627.91
2018-12-15T18:19:30.296Z,99618.38
2018-12-15T18:22:00.388Z,99622.93
2018-12-15T18:24:29.531Z,99619.39
2018-12-15T18:27:03.817Z,99616.74
2018-12-15T18:29:34.356Z,99612.53
2018-12-15T18:32:04.166Z,99610.75
2018-12-15T18:34:32.751Z,99606.48
2018-12-15T18:37:01.552Z,99611.23
2018-12-15T18:39:31.299Z,99600.79
2018-12-15T18:42:00.126Z,99598.19
2018-12-15T18:44:28.629Z,99598.08
2018-12-15T18:46:58.145Z,99594.33
2018-12-15T18:49:39.570Z,99586.62
2018-12-15T18:52:13.055Z,99582.79
2018-12-15T18:54:43.347Z,99586.94
2018-12-15T18:57:12.737Z,99589.08
2018-12-15T18:59:42.206Z,99576.48
2018-12-15T19:02:11.969Z,99571.69
2018-12-15T19:04:41.346Z,99571.32
2018-12-15T19:07:10.059Z,99567.42
2018-12-15T19:09:39.851Z,99555.80
2018-12-15T19:12:08.448Z,99556.97
2018-12-15T19:14:37.022Z,99547.02
2018-12-15T19:17:06.044Z,99544.54
2018-12-15T19:19:34.986Z,99537.59
2018-12-15T19:22:05.859Z,99539.01
2018-12-15T19:24:34.563Z,99546.28
2018-12-15T19:27:05.936Z,99540.75
2018-12-15T19:29:36.514Z,99537.17
2018-12-15T19:32:05.947Z,99537.18
2018-12-15T19:34:36.176Z,99530.67
2018-12-15T19:37:05.624Z,99526.73
2018-12-15T19:39:35.246Z,99519.73
2018-12-15T19:42:03.844Z,99512.05
2018-12-15T19:44:34.664Z,99500.35
2018-12-15T19:47:04.049Z,99500.40
2018-12-15T19:49:35.313Z,99505.59
2018-12-15T19:52:06.168Z,99502.19
2018-12-15T19:54:35.914Z,99500.05
2018-12-15T19:57:10.094Z,99495.75
2018-12-15T19:59:39.801Z,99491.34
2018-12-15T20:02:08.728Z,99489.61
2018-12-15T20:04:41.064Z,99489.63
2018-12-15T20:07:09.901Z,99480.95
2018-12-15T20:09:39.007Z,99475.75
2018-12-15T20:12:08.533Z,99474.08
2018-12-15T20:14:38.080Z,99473.22
2018-12-15T20:17:07.939Z,99470.73
2018-12-15T20:19:36.771Z,99473.72
2018-12-15T20:22:05.415Z,99469.82
2018-12-15T20:24:47.579Z,99469.43
2018-12-15T20:27:18.462Z,99471.72
2018-12-15T20:29:48.773Z,99466.52
2018-12-15T20:32:20.118Z,99471.66
2018-12-15T20:34:52.077Z,99468.16
2018-12-15T20:37:23.849Z,99461.73
2018-12-15T20:39:56.577Z,99463.45
2018-12-15T20:42:29.136Z,99456.22
2018-12-15T20:44:58.017Z,99452.28
2018-12-15T20:47:27.999Z,99450.37
2018-12-15T20:50:04.901Z,99453.79
2018-12-15T20:52:34.427Z,99446.37
2018-12-15T20:55:05.009Z,99444.67
2018-12-15T20:57:36.611Z,99448.19
2018-12-15T21:00:08.975Z,99448.98
2018-12-15T21:02:43.670Z,99438.59
2018-12-15T21:05:19.873Z,99437.84
2018-12-15T21:07:49.542Z,99442.08
2018-12-15T21:10:19.258Z,99435.61
2018-12-15T21:12:51.547Z,99433.04
2018-12-15T21:15:25.055Z,99429.59
2018-12-15T21:17:57.202Z,99423.63
2018-12-15T21:20:26.458Z,99417.25
2018-12-15T21:22:55.538Z,99410.77
2018-12-15T21:25:25.476Z,99405.11
2018-12-15T21:27:55.095Z,99399.17
2018-12-15T21:30:24.615Z,99395.78
2018-12-15T21:32:54.358Z,99386.61
2018-12-15T21:35:22.833Z,99386.69
2018-12-15T21:37:58.550Z,99383.22
2018-12-15T21:40:27.278Z,99385.00
2018-12-15T21:42:55.766Z,99385.47
2018-12-15T21:45:24.890Z,99374.69
2018-12-15T21:47:57.586Z,99370.31
2018-12-15T21:50:24.241Z,99369.58
2018-12-15T21:52:52.725Z,99366.60
2018-12-15T21:55:21.158Z,99364.00
2018-12-15T21:57:49.603Z,99358.87
2018-12-15T22:00:18.675Z,99354.12
2018-12-15T22:02:48.635Z,99349.44
2018-12-15T22:05:18.297Z,99343.83
2018-12-15T22:07:48.005Z,99354.19
2018-12-15T22:10:16.491Z,99340.33
2018-12-15T22:12:45.692Z,99336.02
2018-12-15T22:15:15.687Z,99338.27
2018-12-15T22:17:45.081Z,99324.44
2018-12-15T22:20:14.297Z,99321.41
2018-12-15T22:22:43.629Z,99321.41
2018-12-15T22:25:12.981Z,99311.49
2018-12-15T22:27:41.439Z,99305.91
2018-12-15T22:30:11.396Z,99302.46
2018-12-15T22:32:40.703Z,99296.06
2018-12-15T22:35:09.588Z,99283.64
2018-12-15T22:37:38.798Z,99284.57
2018-12-15T22:40:08.886Z,99276.33
2018-12-15T22:42:38.242Z,99266.38
2018-12-15T22:45:07.323Z,99261.28
2018-12-15T22:47:35.770Z,99249.67
2018-12-15T22:50:06.543Z,99255.77
2018-12-15T22:52:35.594Z,99239.33
2018-12-15T22:55:05.200Z,99235.11
2018-12-15T22:57:33.629Z,99228.61
2018-12-15T23:00:02.443Z,99226.55
2018-12-15T23:02:32.072Z,99218.72
2018-12-15T23:05:00.662Z,99222.61
2018-12-15T23:07:30.149Z,99213.56
2018-12-15T23:09:59.200Z,99218.77
2018-12-15T23:12:28.824Z,99217.41
2018-12-15T23:14:57.290Z,99213.02
2018-12-15T23:17:25.739Z,99207.38
2018-12-15T23:19:54.621Z,99202.20
2018-12-15T23:22:23.078Z,99193.95
2018-12-15T23:24:51.558Z,99177.95
2018-12-15T23:27:20.461Z,99174.02
2018-12-15T23:29:48.966Z,99160.16
2018-12-15T23:32:19.643Z,99142.48
2018-12-15T23:34:48.104Z,99126.07
2018-12-15T23:37:16.903Z,99119.64
2018-12-15T23:39:45.604Z,99124.31
2018-12-15T23:42:14.978Z,99123.43
2018-12-15T23:44:43.533Z,99140.14
2018-12-15T23:47:11.964Z,99130.57
2018-12-15T23:49:41.338Z,99125.39
2018-12-15T23:52:10.441Z,99130.88
2018-12-15T23:54:39.262Z,99125.27
2018-12-15T23:57:09.744Z,99116.52
2018-12-15T23:59:38.174Z,99108.34
